Aviation Digital Data Service (ADDS)

Output produced by METARs form (1423 UTC 25 November 2020)
found at http://www.aviationweather.gov/metar/data/
 
METAR text: LFMY 251400Z AUTO 13004KT 090V170 CAVOK 14/06 Q1020 NOSIG
Conditions at: LFMY (SALON (FAFB) , FR) observed 1400 UTC 25 November 2020
Temperature: 14.0°C (57°F)
Dewpoint: 6.0°C (43°F) [RH = 58%]
Pressure (altimeter): 30.12 inches Hg (1020.0 mb)
Winds: from the SE (130 degrees) at 5 MPH (4 knots; 2.1 m/s)
Visibility: 6 or more miles (10+ km)
Ceiling: ceiling and visibility are OK
Clouds: unknown
Weather: no significant weather observed at this time

METAR text: LFMY 251330Z AUTO 15004KT CAVOK 14/06 Q1020 BECMG 09012KT
Conditions at: LFMY (SALON (FAFB) , FR) observed 1330 UTC 25 November 2020
Temperature: 14.0°C (57°F)
Dewpoint: 6.0°C (43°F) [RH = 58%]
Pressure (altimeter): 30.12 inches Hg (1020.0 mb)
Winds: from the SSE (150 degrees) at 5 MPH (4 knots; 2.1 m/s)
Visibility: 6 or more miles (10+ km)
Ceiling: ceiling and visibility are OK
Clouds: unknown
Weather: no significant weather observed at this time

Forecast for: LFMY (SALON (FAFB) , FR)
Text: TAF LFMY 251400Z 2515/2615 11010KT 9999 BKN045 TX17/2614Z TN07/2605Z
Forecast period: 1500 UTC 25 November 2020 to 1500 UTC 26 November 2020
Forecast type: FROM: standard forecast or significant change
Winds: from the ESE (110 degrees) at 12 MPH (10 knots; 5.1 m/s)
Visibility: 6 or more miles (10+ km)
Ceiling: 4500 feet AGL
Clouds: broken clouds at 4500 feet AGL
Weather: no significant weather forecast for this period